createdAt,value
2022-08-16T00:01:24.836Z,43.33
2022-08-16T00:03:54.559Z,43.17
2022-08-16T00:06:22.822Z,43.10
2022-08-16T00:08:52.495Z,43.10
2022-08-16T00:11:21.144Z,43.19
2022-08-16T00:13:53.947Z,43.39
2022-08-16T00:17:00.957Z,43.29
2022-08-16T00:19:41.138Z,43.00
2022-08-16T00:22:40.641Z,42.93
2022-08-16T00:25:15.137Z,43.16
2022-08-16T00:27:43.251Z,43.04
2022-08-16T00:30:19.817Z,43.28
2022-08-16T00:32:58.802Z,43.09
2022-08-16T00:35:30.999Z,42.75
2022-08-16T00:38:41.142Z,42.89
2022-08-16T00:40:54.829Z,42.73
2022-08-16T00:43:42.655Z,42.72
2022-08-16T00:46:35.645Z,42.84
2022-08-16T00:49:17.317Z,42.79
2022-08-16T00:51:47.075Z,43.08
2022-08-16T00:54:25.963Z,42.82
2022-08-16T00:57:00.105Z,42.79
2022-08-16T00:59:34.583Z,43.01
2022-08-16T01:02:31.293Z,43.18
2022-08-16T01:05:09.308Z,43.08
2022-08-16T01:07:50.426Z,43.13
2022-08-16T01:10:32.416Z,43.21
2022-08-16T01:13:07.145Z,43.20
2022-08-16T01:15:43.082Z,43.25
2022-08-16T01:18:40.099Z,43.53
2022-08-16T01:21:33.806Z,43.35
2022-08-16T01:24:52.180Z,43.28
2022-08-16T01:27:26.040Z,43.24
2022-08-16T01:30:36.759Z,43.35
2022-08-16T01:33:14.385Z,43.30
2022-08-16T01:35:53.346Z,43.44
2022-08-16T01:38:30.860Z,43.30
2022-08-16T01:41:07.578Z,43.67
2022-08-16T01:43:37.849Z,43.64
2022-08-16T01:46:29.827Z,43.70
2022-08-16T01:49:10.173Z,43.60
2022-08-16T01:51:39.563Z,43.67
2022-08-16T01:54:09.299Z,43.70
2022-08-16T01:56:49.413Z,43.72
2022-08-16T01:59:21.408Z,43.75
2022-08-16T02:01:59.409Z,43.93
2022-08-16T02:04:48.651Z,43.74
2022-08-16T02:07:23.691Z,43.96
2022-08-16T02:12:52.061Z,44.10
2022-08-16T02:15:27.266Z,44.06
2022-08-16T02:17:58.876Z,44.17
2022-08-16T02:20:33.448Z,43.97
2022-08-16T02:23:05.783Z,44.21
2022-08-16T02:25:52.062Z,44.27
2022-08-16T02:28:47.121Z,44.14
2022-08-16T02:31:16.341Z,44.21
2022-08-16T02:33:50.045Z,44.35
2022-08-16T02:36:47.224Z,44.04
2022-08-16T02:39:19.573Z,43.89
2022-08-16T02:41:53.602Z,43.91
2022-08-16T02:44:27.090Z,43.64
2022-08-16T02:46:57.392Z,43.50
2022-08-16T02:49:58.150Z,43.36
2022-08-16T02:52:24.861Z,43.00
2022-08-16T02:55:00.514Z,42.34
2022-08-16T02:57:31.223Z,41.77
2022-08-16T03:00:01.321Z,41.83
2022-08-16T03:02:56.183Z,41.87
2022-08-16T03:05:25.580Z,41.91
2022-08-16T03:08:00.127Z,41.71
2022-08-16T03:10:31.875Z,42.00
2022-08-16T03:13:03.540Z,41.76
2022-08-16T03:15:40.277Z,41.56
2022-08-16T03:18:12.539Z,41.27
2022-08-16T03:20:55.850Z,40.77
2022-08-16T03:23:26.698Z,40.34
2022-08-16T03:26:04.481Z,39.94
2022-08-16T03:28:32.348Z,39.70
2022-08-16T03:31:01.063Z,39.27
2022-08-16T03:33:29.855Z,39.10
2022-08-16T03:36:30.313Z,38.93
2022-08-16T03:38:53.195Z,38.42
2022-08-16T03:41:25.690Z,38.18
2022-08-16T03:44:02.172Z,37.98
2022-08-16T03:46:50.291Z,37.42
2022-08-16T03:49:37.170Z,37.23
2022-08-16T03:52:08.435Z,37.00
2022-08-16T03:54:38.904Z,36.90
2022-08-16T03:57:21.903Z,37.22
2022-08-16T03:59:52.100Z,36.82
2022-08-16T04:02:22.716Z,36.43
2022-08-16T04:05:00.162Z,36.47
2022-08-16T04:07:33.526Z,36.24
2022-08-16T04:10:36.339Z,35.78
2022-08-16T04:13:00.616Z,35.59
2022-08-16T04:15:33.840Z,35.51
2022-08-16T04:18:16.812Z,35.33
2022-08-16T04:20:45.244Z,35.13
2022-08-16T04:23:16.248Z,34.96
2022-08-16T04:25:47.000Z,34.88
2022-08-16T04:28:54.472Z,34.75
2022-08-16T04:31:20.776Z,34.70
2022-08-16T04:33:51.556Z,34.62
2022-08-16T04:36:23.165Z,34.40
2022-08-16T04:38:52.532Z,34.21
2022-08-16T04:41:32.394Z,34.11
2022-08-16T04:44:02.973Z,33.87
2022-08-16T04:47:00.968Z,33.87
2022-08-16T04:49:44.055Z,33.38
2022-08-16T04:52:35.103Z,33.20
2022-08-16T04:55:11.838Z,33.06
2022-08-16T04:57:41.671Z,33.01
2022-08-16T05:00:32.531Z,33.25
2022-08-16T05:03:11.943Z,32.97
2022-08-16T05:06:00.040Z,32.88
2022-08-16T05:08:34.733Z,32.58
2022-08-16T05:11:10.800Z,32.48
2022-08-16T05:13:43.680Z,32.55
2022-08-16T05:16:24.557Z,32.61
2022-08-16T05:19:02.419Z,32.24
2022-08-16T05:21:38.221Z,32.26
2022-08-16T05:24:10.035Z,32.12
2022-08-16T05:26:43.266Z,31.86
2022-08-16T05:29:18.423Z,32.03
2022-08-16T05:32:03.043Z,31.94
2022-08-16T05:34:51.511Z,32.20
2022-08-16T05:37:19.680Z,31.81
2022-08-16T05:39:55.324Z,31.98
2022-08-16T05:42:36.061Z,32.04
2022-08-16T05:45:07.096Z,32.06
2022-08-16T05:47:43.138Z,32.09
2022-08-16T05:50:18.981Z,31.96
2022-08-16T05:52:49.635Z,31.79
2022-08-16T05:55:19.755Z,31.67
2022-08-16T05:57:47.830Z,31.94
2022-08-16T06:00:22.637Z,31.70
2022-08-16T06:02:53.247Z,31.74
2022-08-16T06:05:50.693Z,31.81
2022-08-16T06:08:30.867Z,31.82
2022-08-16T06:11:10.292Z,31.63
2022-08-16T06:13:45.273Z,31.77
2022-08-16T06:16:19.608Z,31.85
2022-08-16T06:18:52.329Z,31.71
2022-08-16T06:21:23.626Z,31.86
2022-08-16T06:23:57.444Z,31.83
2022-08-16T06:26:40.065Z,31.90
2022-08-16T06:29:28.107Z,31.83
2022-08-16T06:31:56.426Z,31.71
2022-08-16T06:34:55.917Z,31.63
2022-08-16T06:37:17.051Z,31.74
2022-08-16T06:39:50.119Z,31.94
2022-08-16T06:42:47.412Z,32.04
2022-08-16T06:45:38.163Z,32.11
2022-08-16T06:48:18.859Z,32.21
2022-08-16T06:50:52.100Z,32.28
2022-08-16T06:53:23.024Z,31.96
2022-08-16T06:56:06.120Z,32.17
2022-08-16T06:58:56.411Z,32.08
2022-08-16T07:01:44.556Z,31.91
2022-08-16T07:04:32.032Z,31.94
2022-08-16T07:07:09.522Z,31.76
2022-08-16T07:09:39.445Z,31.85
2022-08-16T07:12:09.052Z,32.05
2022-08-16T07:14:44.746Z,32.01
2022-08-16T07:17:19.367Z,31.91
2022-08-16T07:20:29.170Z,32.12
2022-08-16T07:23:01.725Z,32.24
2022-08-16T07:25:40.211Z,31.96
2022-08-16T07:28:20.918Z,31.98
2022-08-16T07:30:57.719Z,32.00
2022-08-16T07:33:51.948Z,31.74
2022-08-16T07:36:26.429Z,32.05
2022-08-16T07:39:02.843Z,32.17
2022-08-16T07:41:36.365Z,31.93
2022-08-16T07:44:16.087Z,31.97
2022-08-16T07:46:46.021Z,32.14
2022-08-16T07:49:24.253Z,32.20
2022-08-16T07:52:18.720Z,32.10
2022-08-16T07:54:53.355Z,32.17
2022-08-16T07:57:24.283Z,32.20
2022-08-16T08:00:08.099Z,32.03
2022-08-16T08:02:52.350Z,32.01
2022-08-16T08:05:35.824Z,32.21
2022-08-16T08:08:11.485Z,32.19
2022-08-16T08:10:41.481Z,32.08
2022-08-16T08:13:15.161Z,32.10
2022-08-16T08:15:53.111Z,32.25
2022-08-16T08:18:29.969Z,32.41
2022-08-16T08:21:00.151Z,32.43
2022-08-16T08:23:32.532Z,32.66
2022-08-16T08:26:00.440Z,32.56
2022-08-16T08:28:32.009Z,32.59
2022-08-16T08:31:06.224Z,32.46
2022-08-16T08:33:37.668Z,32.65
2022-08-16T08:36:21.980Z,32.52
2022-08-16T08:38:53.513Z,32.56
2022-08-16T08:41:28.987Z,32.53
2022-08-16T08:44:00.970Z,32.33
2022-08-16T08:47:00.409Z,32.53
2022-08-16T08:49:46.416Z,32.43
2022-08-16T08:52:33.635Z,32.69
2022-08-16T08:55:11.262Z,32.85
2022-08-16T08:57:48.637Z,32.66
2022-08-16T09:00:51.200Z,32.63
2022-08-16T09:03:21.435Z,32.76
2022-08-16T09:05:54.157Z,33.08
2022-08-16T09:08:26.566Z,32.89
2022-08-16T09:11:07.453Z,32.85
2022-08-16T09:13:38.473Z,32.81
2022-08-16T09:17:02.309Z,32.76
2022-08-16T09:19:14.633Z,33.01
2022-08-16T09:21:42.708Z,33.02
2022-08-16T09:24:13.328Z,32.97
2022-08-16T09:27:01.556Z,33.18
2022-08-16T09:29:44.528Z,32.83
2022-08-16T09:32:28.983Z,32.74
2022-08-16T09:35:00.119Z,32.61
2022-08-16T09:37:36.783Z,32.42
2022-08-16T09:40:32.343Z,32.80
2022-08-16T09:42:59.076Z,32.85
2022-08-16T09:45:29.083Z,32.94
2022-08-16T09:47:58.619Z,32.96
2022-08-16T09:50:36.861Z,32.78
2022-08-16T09:53:15.346Z,33.09
2022-08-16T09:55:49.622Z,33.23
2022-08-16T09:58:41.461Z,32.96
2022-08-16T10:01:14.983Z,33.17
2022-08-16T10:04:01.711Z,33.14
2022-08-16T10:06:33.507Z,33.03
2022-08-16T10:09:10.572Z,32.71
2022-08-16T10:12:11.148Z,32.78
2022-08-16T10:14:46.322Z,32.66
2022-08-16T10:17:17.385Z,32.80
2022-08-16T10:19:47.191Z,32.75
2022-08-16T10:22:18.813Z,32.85
2022-08-16T10:24:55.861Z,32.87
2022-08-16T10:27:45.816Z,32.94
2022-08-16T10:30:25.782Z,32.74
2022-08-16T10:32:56.740Z,32.76
2022-08-16T10:35:32.908Z,32.63
2022-08-16T10:38:09.622Z,32.86
2022-08-16T10:40:54.866Z,32.93
2022-08-16T10:43:23.543Z,32.91
2022-08-16T10:46:00.281Z,32.84
2022-08-16T10:48:29.729Z,32.87
2022-08-16T10:50:59.535Z,32.85
2022-08-16T10:53:32.818Z,32.71
2022-08-16T10:56:52.467Z,32.69
2022-08-16T10:59:29.642Z,32.84
2022-08-16T11:02:21.827Z,32.83
2022-08-16T11:07:43.460Z,32.59
2022-08-16T11:11:00.068Z,32.53
2022-08-16T11:15:57.793Z,32.56
2022-08-16T11:19:02.885Z,32.74
2022-08-16T11:21:29.044Z,32.94
2022-08-16T11:23:59.881Z,32.94
2022-08-16T11:26:28.390Z,32.95
2022-08-16T11:29:14.033Z,33.11
2022-08-16T11:31:45.973Z,33.05
2022-08-16T11:34:22.005Z,32.84
2022-08-16T11:36:53.586Z,33.16
2022-08-16T11:39:30.660Z,33.05
2022-08-16T11:41:59.711Z,33.17
2022-08-16T11:44:52.091Z,33.07
2022-08-16T11:47:15.378Z,32.97
2022-08-16T11:49:44.128Z,33.18
2022-08-16T11:52:12.105Z,33.08
2022-08-16T11:54:40.377Z,33.25
2022-08-16T11:57:09.549Z,33.36
2022-08-16T11:59:39.809Z,33.19
2022-08-16T12:02:32.192Z,33.06
2022-08-16T12:04:57.682Z,32.95
2022-08-16T12:07:25.603Z,33.22
2022-08-16T12:09:54.212Z,33.23
2022-08-16T12:12:23.613Z,33.37
2022-08-16T12:14:59.800Z,33.23
2022-08-16T12:17:34.376Z,33.50
2022-08-16T12:20:12.775Z,33.56
2022-08-16T12:22:51.519Z,33.50
2022-08-16T12:25:22.320Z,33.24
2022-08-16T12:27:50.847Z,33.51
2022-08-16T12:30:30.337Z,33.54
2022-08-16T12:33:05.060Z,33.34
2022-08-16T12:35:38.284Z,33.41
2022-08-16T12:38:08.697Z,33.48
2022-08-16T12:40:57.499Z,33.57
2022-08-16T12:43:31.277Z,33.51
2022-08-16T12:46:01.887Z,33.55
2022-08-16T12:48:50.890Z,33.41
2022-08-16T12:51:59.825Z,33.47
2022-08-16T12:54:26.965Z,33.38
2022-08-16T12:56:55.870Z,33.30
2022-08-16T12:59:24.055Z,33.17
2022-08-16T13:01:58.362Z,33.32
2022-08-16T13:04:31.428Z,33.37
2022-08-16T13:07:04.746Z,33.34
2022-08-16T13:09:43.018Z,33.40
2022-08-16T13:12:23.602Z,33.28
2022-08-16T13:14:53.866Z,33.60
2022-08-16T13:17:26.427Z,33.47
2022-08-16T13:20:13.900Z,33.46
2022-08-16T13:22:53.389Z,33.54
2022-08-16T13:25:23.783Z,33.51
2022-08-16T13:28:01.653Z,33.57
2022-08-16T13:30:41.604Z,33.34
2022-08-16T13:33:14.806Z,33.22
2022-08-16T13:35:55.851Z,33.37
2022-08-16T13:38:31.584Z,33.38
2022-08-16T13:41:11.187Z,33.61
2022-08-16T13:43:40.027Z,33.68
2022-08-16T13:46:08.301Z,33.74
2022-08-16T13:48:44.792Z,33.71
2022-08-16T13:51:19.511Z,33.60
2022-08-16T13:53:54.646Z,33.51
2022-08-16T13:56:37.680Z,33.83
2022-08-16T13:59:14.347Z,33.81
2022-08-16T14:01:54.607Z,33.95
2022-08-16T14:04:29.918Z,33.64
2022-08-16T14:07:00.490Z,33.94
2022-08-16T14:09:30.309Z,33.61
2022-08-16T14:12:17.505Z,33.80
2022-08-16T14:14:46.986Z,33.91
2022-08-16T14:17:16.589Z,33.74
2022-08-16T14:19:46.261Z,33.73
2022-08-16T14:22:31.274Z,34.00
2022-08-16T14:25:03.061Z,33.84
2022-08-16T14:27:31.376Z,34.29
2022-08-16T14:30:00.060Z,34.25
2022-08-16T14:32:34.611Z,34.23
2022-08-16T14:35:08.337Z,34.22
2022-08-16T14:37:45.256Z,34.08
2022-08-16T14:40:31.282Z,34.19
2022-08-16T14:43:06.217Z,34.09
2022-08-16T14:45:43.644Z,34.28
2022-08-16T14:48:11.554Z,34.05
2022-08-16T14:50:39.364Z,34.11
2022-08-16T14:53:10.012Z,34.11
2022-08-16T14:55:41.583Z,34.22
2022-08-16T14:58:10.485Z,34.21
2022-08-16T15:00:49.931Z,34.39
2022-08-16T15:03:21.977Z,34.49
2022-08-16T15:05:53.768Z,34.36
2022-08-16T15:08:36.934Z,34.65
2022-08-16T15:11:08.012Z,34.49
2022-08-16T15:13:36.214Z,34.38
2022-08-16T15:16:29.237Z,34.38
2022-08-16T15:19:00.117Z,34.50
2022-08-16T15:21:36.117Z,34.43
2022-08-16T15:24:16.841Z,34.45
2022-08-16T15:26:50.574Z,34.57
2022-08-16T15:29:19.559Z,34.59
2022-08-16T15:32:00.635Z,34.85
2022-08-16T15:34:32.115Z,35.08
2022-08-16T15:37:01.082Z,35.12
2022-08-16T15:39:39.448Z,34.93
2022-08-16T15:42:27.335Z,35.07
2022-08-16T15:44:58.440Z,35.02
2022-08-16T15:47:27.942Z,35.14
2022-08-16T15:49:58.874Z,35.17
2022-08-16T15:52:40.930Z,35.31
2022-08-16T15:55:23.806Z,35.34
2022-08-16T15:58:35.321Z,35.65
2022-08-16T16:01:19.813Z,35.37
2022-08-16T16:03:53.791Z,35.69
2022-08-16T16:06:27.917Z,36.02
2022-08-16T16:08:58.553Z,35.99
2022-08-16T16:11:26.469Z,35.91
2022-08-16T16:13:59.991Z,36.02
2022-08-16T16:16:28.487Z,35.94
2022-08-16T16:18:56.841Z,36.24
2022-08-16T16:21:25.875Z,36.30
2022-08-16T16:23:59.004Z,36.11
2022-08-16T16:26:30.902Z,36.33
2022-08-16T16:29:07.786Z,36.28
2022-08-16T16:31:43.922Z,36.43
2022-08-16T16:34:22.026Z,36.46
2022-08-16T16:36:50.041Z,36.64
2022-08-16T16:39:22.506Z,36.64
2022-08-16T16:41:50.341Z,36.73
2022-08-16T16:44:22.697Z,36.73
2022-08-16T16:47:01.845Z,37.01
2022-08-16T16:49:29.810Z,37.00
2022-08-16T16:52:06.594Z,37.01
2022-08-16T16:54:35.692Z,37.19
2022-08-16T16:57:05.328Z,37.25
2022-08-16T16:59:33.283Z,37.18
2022-08-16T17:02:38.493Z,37.51
2022-08-16T17:04:49.141Z,37.46
2022-08-16T17:07:17.779Z,37.62
2022-08-16T17:09:53.198Z,37.55
2022-08-16T17:12:25.388Z,37.80
2022-08-16T17:15:12.382Z,37.79
2022-08-16T17:17:59.761Z,37.90
2022-08-16T17:20:31.597Z,37.96
2022-08-16T17:22:59.747Z,38.08
2022-08-16T17:25:36.795Z,38.12
2022-08-16T17:28:58.867Z,38.32
2022-08-16T17:30:59.582Z,38.30
2022-08-16T17:33:36.854Z,38.32
2022-08-16T17:36:06.146Z,38.51
2022-08-16T17:38:43.646Z,38.60
2022-08-16T17:41:13.900Z,38.71
2022-08-16T17:43:44.395Z,38.78
2022-08-16T17:46:50.897Z,38.86
2022-08-16T17:49:07.772Z,38.86
2022-08-16T17:51:35.632Z,39.00
2022-08-16T17:54:03.742Z,39.01
2022-08-16T17:56:32.420Z,39.17
2022-08-16T17:59:01.339Z,39.11
2022-08-16T18:01:29.290Z,39.35
2022-08-16T18:04:06.806Z,39.35
2022-08-16T18:06:40.414Z,39.49
2022-08-16T18:09:08.450Z,39.61
2022-08-16T18:11:40.955Z,39.57
2022-08-16T18:14:11.417Z,39.50
2022-08-16T18:16:40.896Z,39.57
2022-08-16T18:19:10.313Z,39.53
2022-08-16T18:22:17.010Z,39.54
2022-08-16T18:24:49.042Z,39.82
2022-08-16T18:27:25.402Z,39.89
2022-08-16T18:29:55.263Z,39.91
2022-08-16T18:32:24.728Z,39.88
2022-08-16T18:34:54.718Z,39.82
2022-08-16T18:37:24.118Z,40.03
2022-08-16T18:39:52.887Z,40.08
2022-08-16T18:42:21.039Z,40.18
2022-08-16T18:44:49.374Z,40.33
2022-08-16T18:47:19.458Z,40.42
2022-08-16T18:49:47.340Z,40.21
2022-08-16T18:52:25.270Z,40.35
2022-08-16T18:55:02.294Z,40.46
2022-08-16T18:57:41.652Z,40.43
2022-08-16T19:00:13.478Z,40.58
2022-08-16T19:02:58.887Z,40.58
2022-08-16T19:05:30.439Z,40.56
2022-08-16T19:08:02.358Z,40.59
2022-08-16T19:10:31.987Z,40.54
2022-08-16T19:13:02.460Z,40.61
2022-08-16T19:15:31.352Z,40.62
2022-08-16T19:17:59.228Z,40.52
2022-08-16T19:20:28.744Z,40.56
2022-08-16T19:23:05.760Z,40.73
2022-08-16T19:25:46.789Z,40.74
2022-08-16T19:28:58.007Z,40.84
2022-08-16T19:31:25.658Z,40.97
2022-08-16T19:33:56.547Z,40.90
2022-08-16T19:36:36.743Z,41.17
2022-08-16T19:39:11.051Z,41.14
2022-08-16T19:41:42.545Z,41.14
2022-08-16T19:44:11.458Z,41.28
2022-08-16T19:46:44.918Z,41.20
2022-08-16T19:49:15.934Z,41.18
2022-08-16T19:51:46.399Z,41.35
2022-08-16T19:54:16.620Z,41.36
2022-08-16T19:56:46.840Z,41.51
2022-08-16T19:59:39.421Z,41.58
2022-08-16T20:02:09.822Z,41.52
2022-08-16T20:05:04.456Z,41.66
2022-08-16T20:07:33.611Z,41.66
2022-08-16T20:10:02.673Z,41.65
2022-08-16T20:13:01.664Z,41.66
2022-08-16T20:15:31.812Z,41.87
2022-08-16T20:18:04.760Z,42.08
2022-08-16T20:20:49.541Z,42.06
2022-08-16T20:23:24.948Z,42.05
2022-08-16T20:25:56.090Z,42.06
2022-08-16T20:28:39.737Z,42.26
2022-08-16T20:31:12.285Z,42.41
2022-08-16T20:33:40.245Z,42.12
2022-08-16T20:36:08.539Z,42.44
2022-08-16T20:38:47.010Z,42.61
2022-08-16T20:41:16.608Z,42.57
2022-08-16T20:43:45.569Z,42.63
2022-08-16T20:46:14.309Z,42.59
2022-08-16T20:48:42.885Z,42.84
2022-08-16T20:51:11.597Z,42.76
2022-08-16T20:53:40.811Z,42.73
2022-08-16T20:56:09.105Z,42.74
2022-08-16T20:58:37.783Z,42.98
2022-08-16T21:01:06.476Z,43.16
2022-08-16T21:03:35.109Z,43.20
2022-08-16T21:06:03.619Z,43.18
2022-08-16T21:08:51.759Z,43.41
2022-08-16T21:11:21.826Z,43.22
2022-08-16T21:13:50.304Z,43.51
2022-08-16T21:16:24.332Z,43.59
2022-08-16T21:18:56.075Z,43.68
2022-08-16T21:21:24.009Z,43.58
2022-08-16T21:24:00.394Z,43.61
2022-08-16T21:26:28.205Z,43.60
2022-08-16T21:28:57.010Z,43.89
2022-08-16T21:31:25.025Z,43.77
2022-08-16T21:33:54.920Z,43.99
2022-08-16T21:36:34.633Z,44.13
2022-08-16T21:39:06.344Z,44.13
2022-08-16T21:41:38.535Z,44.14
2022-08-16T21:44:06.595Z,44.16
2022-08-16T21:46:34.564Z,44.29
2022-08-16T21:49:04.725Z,44.23
2022-08-16T21:51:32.500Z,44.25
2022-08-16T21:54:00.330Z,44.35
2022-08-16T21:56:30.950Z,44.40
2022-08-16T21:59:00.269Z,44.66
2022-08-16T22:01:30.006Z,44.68
2022-08-16T22:04:09.693Z,44.63
2022-08-16T22:06:47.009Z,44.63
2022-08-16T22:09:19.209Z,44.77
2022-08-16T22:11:47.244Z,44.85
2022-08-16T22:14:15.124Z,44.99
2022-08-16T22:16:44.115Z,45.02
2022-08-16T22:19:13.660Z,45.08
2022-08-16T22:21:41.717Z,45.05
2022-08-16T22:24:09.961Z,45.06
2022-08-16T22:26:42.494Z,45.18
2022-08-16T22:29:13.636Z,45.43
2022-08-16T22:31:42.649Z,45.33
2022-08-16T22:34:10.484Z,45.24
2022-08-16T22:36:39.068Z,45.30
2022-08-16T22:39:09.886Z,45.58
2022-08-16T22:41:38.852Z,45.66
2022-08-16T22:44:06.756Z,45.53
2022-08-16T22:46:36.738Z,45.56
2022-08-16T22:49:05.991Z,45.66
2022-08-16T22:51:34.777Z,45.84
2022-08-16T22:54:47.531Z,45.73
2022-08-16T22:56:50.490Z,45.99
2022-08-16T22:59:18.269Z,45.93
2022-08-16T23:01:46.177Z,45.88
2022-08-16T23:04:14.028Z,45.86
2022-08-16T23:06:41.847Z,46.19
2022-08-16T23:09:09.658Z,45.92
2022-08-16T23:11:37.442Z,46.06
2022-08-16T23:14:05.254Z,46.26
2022-08-16T23:16:35.155Z,46.22
2022-08-16T23:19:09.367Z,46.36
2022-08-16T23:21:40.833Z,46.45
2022-08-16T23:24:08.806Z,46.46
2022-08-16T23:26:48.003Z,46.74
2022-08-16T23:32:14.446Z,46.87
2022-08-16T23:34:42.278Z,46.96
2022-08-16T23:37:10.091Z,46.85
2022-08-16T23:39:37.874Z,46.85
2022-08-16T23:42:15.571Z,47.06
2022-08-16T23:45:03.636Z,46.99
2022-08-16T23:47:32.055Z,47.05
2022-08-16T23:50:03.543Z,46.93
2022-08-16T23:52:53.176Z,47.16
2022-08-16T23:55:20.462Z,47.13
2022-08-16T23:57:48.539Z,47.04
